新東京国際空港の過去48時間の天気

新東京国際空港 (Tokyo/New Tokyo Intl)

現在時刻: 4/22 22:07 JST (4/22 13:07 UTC) 以下の時間は現地時間です。

過去48時間のMETAR気象情報
時間 風向 風速(m/s) 視程 気温(℃) 湿度(%) 気圧(hPa) 天気現象
22 21:30 東北東 3 10km以上 16 68 1018
22 21:00 3 10km以上 16 63 1018
22 20:30 3 10km以上 16 68 1017
22 20:00 東北東 4 10km以上 16 68 1017
22 19:30 東北東 5 10km以上 16 77 1016
22 19:00 東北東 5 10km以上 16 82 1016
22 18:30 東北東 6 10km以上 17 77 1015
22 18:00 東北東 7 10km以上 18 73 1015
22 17:30 東南東 5 10km以上 19 64 1014
22 17:00 南東 6 10km以上 19 64 1014
22 16:30 南南東 6 10km以上 20 60 1013
22 16:00 南南東 6 10km以上 21 60 1013
22 15:46 南東 6 10km以上 22 57 1013
22 15:30 5 10km以上 22 53 1013
22 15:00 5 10km以上 22 57 1012
22 14:30 東南東 6 9000m 22 60 1012
22 14:00 5 9000m 23 57 1012
22 13:30 東北東 5 9000m 22 65 1013
22 13:00 東北東 4 9000m 22 65 1013
22 12:30 4 9000m 23 61 1012
22 12:00 北東 3 10km以上 22 65 1012
22 11:30 3 10km以上 23 61 1012
22 11:00 不定 2 10km以上 21 69 1013
22 10:30 不定 1 10km以上 22 69 1013
22 10:00 不定 2 10km以上 21 73 1013
22 09:30 2 8000m 19 78 1013
22 09:00 3 8000m 19 73 1013
22 08:30 北北東 2 8000m 18 77 1013
22 08:00 不定 1 8000m 17 83 1013
22 07:30 3 8000m 16 88 1013
22 07:00 北北東 2 8000m 15 88 1013
22 06:30 2 7000m 14 94 1013
22 06:00 不定 1 7000m 13 94 1012
22 05:30 不定 1 6000m 13 94 1012
22 05:00 北北東 1 5000m 13 94 1012 もや
22 04:30 2 6000m 13 94 1012
22 04:00 2 6000m 13 94 1012
22 03:30 2 8000m 13 94 1012
22 03:00 東北東 1 8000m 13 100 1011
22 02:30 北東 2 8000m 13 94 1012
22 02:00 2 8000m 14 88 1012
22 01:30 2 8000m 14 94 1012
22 01:00 北北東 2 8000m 14 94 1012
22 00:30 北北東 2 8000m 14 94 1012
22 00:00 不定 1 8000m 15 88 1012
21 23:30 不定 1 8000m 15 88 1012
21 23:00 北北東 2 8000m 15 88 1012
21 22:30 北東 2 8000m 15 88 1012
21 22:00 北東 2 10km以上 15 88 1012
21 21:30 北東 2 10km以上 15 88 1012
21 21:00 2 10km以上 15 88 1012
21 20:30 東北東 2 10km以上 16 82 1013
21 20:00 東北東 2 10km以上 16 88 1013
21 19:30 東北東 2 10km以上 16 82 1012
21 19:00 東北東 3 10km以上 16 82 1012
21 18:30 北東 2 10km以上 16 82 1012
21 18:00 北北東 3 10km以上 16 82 1011
21 17:30 東北東 3 10km以上 17 77 1011
21 17:00 東北東 4 10km以上 17 77 1011
21 16:30 北東 4 10km以上 17 72 1011
21 16:00 北東 5 10km以上 17 72 1011
21 15:30 北東 4 10km以上 18 68 1011
21 15:00 東北東 4 10km以上 18 73 1011
21 14:30 東北東 4 10km以上 18 73 1011
21 14:00 東北東 5 10km以上 18 68 1011
21 13:30 北北東 5 10km以上 18 68 1012
21 13:00 北東 5 10km以上 19 68 1012
21 12:30 北東 5 10km以上 18 73 1012
21 12:00 北東 5 10km以上 18 73 1012
21 11:30 北東 5 10km以上 18 73 1013
21 11:00 北東 5 10km以上 19 68 1013
21 10:30 北北東 4 10km以上 19 73 1013
21 10:00 北北東 4 10km以上 18 73 1014
21 09:30 5 10km以上 19 73 1014
21 09:13 6 10km以上 18 73 1014
21 09:00 2 10km以上 18 73 1014
21 08:30 不定 1 10km以上 18 73 1014
21 08:00 東北東 2 10km以上 16 82 1014
21 07:30 北北東 2 10km以上 15 82 1014
21 07:00 北北東 2 10km以上 14 88 1014
21 06:30 2 10km以上 13 94 1014
21 06:00 東北東 2 10km以上 12 94 1014
21 05:30 北北東 2 8000m 12 94 1014
21 05:00 北東 2 8000m 13 88 1014
21 04:30 北北東 3 10km以上 13 88 1014 弱い雨
RJAA 221230Z 07006KT 020V090 9999 FEW025 SCT030 BKN090 16/10 Q1018 BECMG 04007KT
RJAA 221200Z 08006KT 030V130 9999 FEW025 BKN070 BKN090 16/09 Q1018 BECMG 04007KT RMK 1CU025 5AC070 6AC090 A3006
RJAA 221130Z 08006KT 040V120 9999 FEW025 BKN030 BKN080 16/10 Q1017 BECMG TL1200 05007KT
RJAA 221100Z 07008KT 9999 FEW025 BKN030 16/10 Q1017 BECMG TL1200 05007KT
RJAA 221030Z 07009KT 360V130 9999 FEW025 SCT070 16/12 Q1016 BECMG TL1200 05007KT
RJAA 221000Z 07009KT 020V090 9999 FEW025 BKN030 BKN070 16/13 Q1016 BECMG TL1100 05007KT RMK 1CU025 5SC030 7AC070 A3001
RJAA 220930Z 06012KT 9999 FEW030 17/13 Q1015 BECMG TL1100 05007KT
RJAA 220900Z 06013KT 9999 FEW030 18/13 Q1015 BECMG 05007KT RMK 1CU030 A2998
RJAA 220830Z 12010KT 9999 FEW030 19/12 Q1014 NOSIG RMK 1CU030 A2996
RJAA 220800Z 13011KT 9999 FEW030 19/12 Q1014 NOSIG RMK 1CU030 A2995
RJAA 220730Z 15011KT 9999 FEW030 20/12 Q1013 NOSIG RMK 1CU030 A2994
RJAA 220700Z 15012KT 9999 FEW030 21/13 Q1013 NOSIG RMK 1CU030 A2992
RJAA 220646Z 14011KT 9999 FEW030 22/13 Q1013 RMK 1CU030 A2992
RJAA 220630Z 08010KT 9999 FEW030 22/12 Q1013 NOSIG RMK 1CU030 A2992
RJAA 220600Z 09010KT 9999 FEW030 SCT/// 22/13 Q1012 NOSIG RMK 1CU030 A2991
RJAA 220530Z 11011KT 9000 FEW030 SCT/// 22/14 Q1012 NOSIG
RJAA 220500Z 10009KT 060V130 9000 FEW030 BKN/// 23/14 Q1012 NOSIG
RJAA 220430Z 06009KT 9000 FEW025 BKN/// 22/15 Q1013 BECMG 10010KT
RJAA 220400Z 06008KT 020V120 9000 FEW025 BKN/// 22/15 Q1013 BECMG 10008KT
RJAA 220330Z 09008KT 050V130 9000 FEW020 BKN030 BKN/// 23/15 Q1012 NOSIG
RJAA 220300Z 05006KT 360V130 9999 BKN030 BKN/// 22/15 Q1012 BECMG TL0330 08005KT
RJAA 220230Z VRB05KT 9999 SCT030 BKN/// 23/15 Q1012 BECMG 08005KT RMK 4CU030 A2991
RJAA 220200Z VRB04KT 9999 FEW025 SCT120 BKN/// 21/15 Q1013 BECMG 08005KT RMK 1CU025 3AC120 A2992
RJAA 220130Z VRB02KT 9999 FEW020 BKN/// 22/16 Q1013 BECMG 08005KT RMK 1CU020 A2992
RJAA 220100Z VRB03KT 9999 FEW020 BKN/// 21/16 Q1013 BECMG 08005KT RMK 1CU020 A2992
RJAA 220030Z 01004KT 320V060 8000 FEW020 SCT120 BKN/// 19/15 Q1013 NOSIG
RJAA 220000Z 36005KT 330V090 8000 FEW020 BKN080 BKN120 19/14 Q1013 NOSIG RMK 1CU020 5AC080 7AC120 A2993
RJAA 212330Z 03003KT 340V080 8000 FEW020 BKN080 18/14 Q1013 NOSIG RMK 1CU020 7AC080 A2993
RJAA 212300Z VRB02KT 8000 FEW020 BKN080 BKN120 17/14 Q1013 BECMG 02006KT RMK 1CU020 6AC080 7AC120 A2992
RJAA 212230Z 01005KT 330V040 8000 FEW020 BKN120 BKN/// 16/14 Q1013 NOSIG
RJAA 212200Z 02004KT 350V050 8000 FEW020 BKN100 BKN/// 15/13 Q1013 NOSIG
RJAA 212130Z 01003KT 7000 FEW010 BKN100 14/13 Q1013 NOSIG RMK 1ST010 5AC100 A2991
RJAA 212100Z VRB01KT 7000 FEW010 BKN110 13/12 Q1012 NOSIG RMK 1ST010 6AC110 A2990
RJAA 212030Z VRB01KT 6000 FEW030 BKN110 13/12 Q1012 TEMPO 4000 BR
RJAA 212000Z 03002KT 5000 BR FEW030 BKN120 13/12 Q1012 TEMPO 4000 BR
RJAA 211930Z 01004KT 6000 NSC 13/12 Q1012 NOSIG RMK 3AC120 A2989
RJAA 211900Z 01003KT 6000 SCT040 BKN170 13/12 Q1012 NOSIG RMK 3SC040 7AC170 A2989
RJAA 211830Z 01004KT 8000 SCT040 BKN120 13/12 Q1012 NOSIG RMK 3SC040 7AC120 A2989
RJAA 211800Z 07002KT 8000 FEW040 BKN/// 13/13 Q1011 NOSIG RMK 1SC040 A2988
RJAA 211730Z 05003KT 030V090 8000 SCT040 BKN160 BKN180 13/12 Q1012 NOSIG RMK 3SC040 6AC160 7AC180 A2988
RJAA 211700Z 01003KT 8000 SCT040 BKN110 BKN180 14/12 Q1012 NOSIG RMK 3SC040 6AC110 7AC180 A2989
RJAA 211630Z 09003KT 070V130 8000 SCT040 BKN110 BKN160 14/13 Q1012 NOSIG RMK 3SC040 6AC110 7AC160 A2988
RJAA 211600Z 03003KT 8000 FEW030 BKN040 BKN160 14/13 Q1012 NOSIG RMK 2SC030 6SC040 7AC160 A2989
RJAA 211530Z 02003KT 8000 FEW030 BKN040 14/13 Q1012 NOSIG RMK 2SC030 7SC040 A2989
RJAA 211500Z VRB02KT 8000 FEW030 BKN040 15/13 Q1012 NOSIG RMK 2SC030 7SC040 A2990
RJAA 211430Z VRB02KT 8000 FEW030 BKN040 15/13 Q1012 NOSIG RMK 2SC030 7SC040 A2990
RJAA 211400Z 02004KT 350V050 8000 FEW030 BKN040 15/13 Q1012 NOSIG RMK 2SC030 7SC040 A2991
RJAA 211330Z 04003KT 8000 SCT030 BKN040 15/13 Q1012 NOSIG RMK 3SC030 7SC040 A2991
RJAA 211300Z 04004KT 340V060 9999 BKN030 BKN040 15/13 Q1012 NOSIG RMK 5SC030 7SC040 A2991
RJAA 211230Z 05004KT 010V080 9999 BKN030 15/13 Q1012 NOSIG RMK 7SC030 A2991
RJAA 211200Z 09004KT 010V120 9999 BKN030 15/13 Q1012 BECMG 05005KT
RJAA 211130Z 07004KT 030V110 9999 BKN030 16/13 Q1013 BECMG 05005KT
RJAA 211100Z 06004KT 360V100 9999 BKN030 16/14 Q1013 BECMG 05006KT RMK 7SC030 A2991
RJAA 211030Z 07004KT 020V110 9999 SCT030 BKN040 16/13 Q1012 BECMG 05006KT
RJAA 211000Z 06005KT 020V090 9999 SCT030 BKN045 BKN160 16/13 Q1012 BECMG 05006KT RMK 3SC030 5SC045 7AC160 A2989
RJAA 210930Z 05004KT 360V110 9999 FEW030 SCT045 BKN160 16/13 Q1012 NOSIG RMK 1SC030 3SC045 7AC160 A2989
RJAA 210900Z 03006KT 340V080 9999 SCT030 BKN045 BKN180 16/13 Q1011 NOSIG RMK 3SC030 5SC045 7AC180 A2988
RJAA 210830Z 06006KT 010V090 9999 SCT030 BKN/// 17/13 Q1011 BECMG 05007KT
RJAA 210800Z 06008KT 010V080 9999 SCT030 BKN/// 17/13 Q1011 BECMG 05007KT RMK 4SC030 A2987
RJAA 210730Z 05008KT 010V080 9999 FEW020 BKN030 17/12 Q1011 NOSIG RMK 1CU020 7SC030 A2988
RJAA 210700Z 04009KT 010V080 9999 FEW020 BKN030 17/12 Q1011 NOSIG RMK 2CU020 7SC030 A2988
RJAA 210630Z 05007KT 020V090 9999 FEW020 BKN030 BKN110 18/12 Q1011 NOSIG RMK 1CU020 5SC030 7AC110 A2987
RJAA 210600Z 06008KT 030V110 9999 FEW020 BKN030 BKN110 18/13 Q1011 BECMG 05007KT
RJAA 210530Z 06007KT 030V100 9999 FEW020 SCT030 BKN110 18/13 Q1011 BECMG 05007KT
RJAA 210500Z 07009KT 050V110 9999 FEW020 BKN110 BKN160 18/12 Q1011 BECMG 05008KT
RJAA 210430Z 03010KT 360V070 9999 FEW020 BKN110 BKN/// 18/12 Q1012 NOSIG
RJAA 210400Z 05009KT 020V100 9999 FEW020 BKN110 19/13 Q1012 NOSIG RMK 1CU020 7AC110 A2990
RJAA 210330Z 05009KT 360V100 9999 FEW020 SCT025 BKN110 18/13 Q1012 NOSIG RMK 1CU020 3SC025 7AC110 A2990
RJAA 210300Z 05009KT 010V090 9999 FEW017 BKN020 BKN120 18/13 Q1012 NOSIG RMK 1CU017 5SC020 7AC120 A2991
RJAA 210230Z 04010KT 360V070 9999 FEW017 BKN020 BKN120 18/13 Q1013 NOSIG RMK 1CU017 5CU020 7AC120 A2992
RJAA 210200Z 04009KT 360V080 9999 FEW018 BKN025 BKN120 19/13 Q1013 BECMG 08006KT RMK 2CU018 5CU025 6AC120 A2993
RJAA 210130Z 03007KT 320V070 9999 FEW015 BKN020 19/14 Q1013 NOSIG
RJAA 210100Z 03007KT 360V070 9999 FEW015 BKN/// 18/13 Q1014 NOSIG
RJAA 210030Z 01010KT 9999 FEW015 SCT/// 19/14 Q1014 NOSIG
RJAA 210013Z 35011KT 9999 FEW015 BKN020 18/13 Q1014 RMK 1CU015 6SC020 A2995
RJAA 210000Z 10003KT 060V170 9999 FEW015 BKN020 18/13 Q1014 BECMG 05005KT RMK 1CU015 6SC020 A2995
RJAA 202330Z VRB02KT 9999 FEW020 BKN/// 18/13 Q1014 BECMG 05005KT
RJAA 202300Z 07003KT 030V100 9999 FEW025 BKN/// 16/13 Q1014 BECMG 05005KT RMK 1CU025 A2995
RJAA 202230Z 03003KT 340V100 9999 FEW015 SCT025 BKN/// 15/12 Q1014 NOSIG
RJAA 202200Z 02004KT 9999 FEW030 BKN/// 14/12 Q1014 NOSIG
RJAA 202130Z 08003KT 030V110 9999 FEW040 BKN/// 13/12 Q1014 BECMG 05005KT
RJAA 202100Z 06003KT 9999 FEW040 BKN/// 12/11 Q1014 BECMG 05005KT
RJAA 202030Z 03004KT 8000 FEW040 BKN/// 12/11 Q1014 NOSIG
RJAA 202000Z 05003KT 8000 FEW004 SCT050 13/11 Q1014 NOSIG RMK 1ST004 4SC050 A2995
RJAA 201930Z 02005KT 9999 -RA FEW020 SCT030 BKN050 13/11 Q1014 NOSIG RMK 1CU020 3SC030 7SC050 A2994